Time;durP1;ratioP1;P1;durP2;ratioP2;P2;SDS_P1;SDS_P2;PMS_P1;PMS_P2;Temp;Humidity;BMP_temperature;BMP_pressure;BME280_temperature;BME280_humidity;BME280_pressure;Samples;Min_cycle;Max_cycle;Signal;HPM_P1;HPM_P2
2022/07/25 00:00:35;;;;;;;16.27;11.18;;;;;;;23.76;nan;100499.16;5008529;28;20037;-68
2022/07/25 00:03:01;;;;;;;16.45;11.68;;;;;;;23.75;nan;100499.44;5008090;28;20029;-70
2022/07/25 00:05:26;;;;;;;16.65;11.38;;;;;;;23.66;nan;100506.69;5003404;28;20038;-68
2022/07/25 00:07:52;;;;;;;15.05;10.75;;;;;;;23.51;nan;100494.41;5006238;28;20041;-68
2022/07/25 00:10:18;;;;;;;15.40;11.10;;;;;;;23.42;nan;100493.59;5004264;28;20058;-68
2022/07/25 00:12:44;;;;;;;15.75;11.38;;;;;;;23.36;nan;100488.34;5005494;28;20061;-68
2022/07/25 00:15:10;;;;;;;14.65;11.10;;;;;;;23.29;nan;100487.19;5009460;28;20041;-69
2022/07/25 00:17:36;;;;;;;15.35;10.70;;;;;;;23.34;nan;100495.94;5012042;28;20131;-68
2022/07/25 00:20:03;;;;;;;21.67;11.27;;;;;;;23.21;nan;100469.94;4999889;28;20159;-68
2022/07/25 00:22:28;;;;;;;16.73;11.40;;;;;;;23.19;nan;100488.25;5004698;28;20030;-68
2022/07/25 00:24:53;;;;;;;17.83;11.63;;;;;;;23.10;nan;100434.47;4997155;28;20532;-69
2022/07/25 00:27:19;;;;;;;13.43;10.27;;;;;;;23.03;nan;100407.25;5003941;28;20026;-70
2022/07/25 00:29:44;;;;;;;16.10;11.13;;;;;;;23.03;nan;100441.38;5006431;28;20034;-70
2022/07/25 00:32:10;;;;;;;16.77;11.30;;;;;;;22.92;nan;100435.47;5004695;28;20045;-70
2022/07/25 00:34:35;;;;;;;15.73;10.90;;;;;;;;;;5011628;28;20045;-68
2022/07/25 00:37:00;;;;;;;15.47;10.23;;;;;;;22.95;nan;100434.84;5003625;28;20041;-69
2022/07/25 00:39:26;;;;;;;13.40;10.80;;;;;;;22.85;nan;100355.34;5010928;28;20275;-70
2022/07/25 00:41:51;;;;;;;14.32;11.48;;;;;;;22.82;nan;100441.06;5003681;28;20466;-68
2022/07/25 00:44:24;;;;;;;17.58;10.77;;;;;;;22.77;nan;100427.75;5006050;28;20388;-69
2022/07/25 00:46:50;;;;;;;14.70;11.10;;;;;;;22.65;nan;100423.75;5010530;28;20427;-69
2022/07/25 00:49:15;;;;;;;13.05;10.45;;;;;;;22.54;nan;100438.50;5009015;28;20144;-68
2022/07/25 00:51:41;;;;;;;14.85;10.38;;;;;;;22.49;nan;100447.47;5004464;28;20601;-68
2022/07/25 00:54:06;;;;;;;16.15;10.93;;;;;;;22.45;nan;100419.66;5005069;28;20084;-69
2022/07/25 00:56:33;;;;;;;16.50;11.35;;;;;;;22.37;nan;100424.97;5008837;28;20030;-69
2022/07/25 00:58:58;;;;;;;14.88;10.75;;;;;;;22.30;nan;100444.94;5009752;28;20034;-68
2022/07/25 01:01:24;;;;;;;17.30;10.63;;;;;;;22.30;nan;100481.72;5003152;28;20033;-68
2022/07/25 01:03:49;;;;;;;17.08;10.85;;;;;;;22.26;nan;100446.63;5002070;28;20391;-69
2022/07/25 01:06:15;;;;;;;14.73;10.88;;;;;;;22.21;nan;100424.50;5009688;28;20534;-69
2022/07/25 01:08:40;;;;;;;13.38;10.77;;;;;;;;;;5005945;28;20523;-69
2022/07/25 01:11:07;;;;;;;18.63;10.80;;;;;;;22.11;nan;100384.47;5010823;28;20041;-68
2022/07/25 01:13:33;;;;;;;16.92;11.35;;;;;;;22.07;nan;100362.81;5009623;28;20034;-69
2022/07/25 01:15:59;;;;;;;19.88;11.23;;;;;;;22.08;nan;100439.50;5007518;28;20038;-69
2022/07/25 01:18:24;;;;;;;18.05;11.20;;;;;;;22.03;nan;100436.94;5007702;28;20037;-69
2022/07/25 01:20:49;;;;;;;14.85;11.00;;;;;;;21.98;nan;100432.47;5008825;28;20488;-68
2022/07/25 01:23:15;;;;;;;20.92;11.10;;;;;;;21.92;nan;100495.34;5009198;28;20049;-68
2022/07/25 01:25:40;;;;;;;29.15;11.50;;;;;;;21.92;nan;100443.59;5006115;28;20049;-67
2022/07/25 01:28:06;;;;;;;15.48;10.98;;;;;;;21.85;nan;100439.44;5007640;28;20079;-68
2022/07/25 01:30:31;;;;;;;16.15;11.32;;;;;;;;;;5010992;28;20513;-69
2022/07/25 01:32:57;;;;;;;14.80;11.52;;;;;;;21.82;nan;100434.66;5010989;28;20085;-68
2022/07/25 01:35:22;;;;;;;19.25;10.70;;;;;;;21.81;nan;100417.00;5010924;28;20088;-68
2022/07/25 01:37:48;;;;;;;16.05;10.55;;;;;;;21.82;nan;100436.56;5011620;28;20073;-69
2022/07/25 01:40:13;;;;;;;15.40;11.57;;;;;;;21.80;nan;100430.69;5010333;28;20034;-69
2022/07/25 01:42:39;;;;;;;15.10;11.15;;;;;;;;;;5011606;28;20040;-68
2022/07/25 01:45:05;;;;;;;23.98;11.57;;;;;;;21.65;nan;100421.09;5010494;28;20945;-69
2022/07/25 01:47:30;;;;;;;16.45;11.07;;;;;;;21.63;nan;100407.19;5009366;28;20038;-69
2022/07/25 01:49:56;;;;;;;19.08;11.23;;;;;;;21.60;nan;100472.09;5003670;28;20038;-68
2022/07/25 01:52:21;;;;;;;24.33;11.95;;;;;;;21.45;nan;100415.03;5007859;28;20079;-68
2022/07/25 01:54:47;;;;;;;20.38;11.32;;;;;;;21.21;nan;100419.72;5008884;28;20038;-68
2022/07/25 01:57:12;;;;;;;19.38;11.77;;;;;;;21.15;nan;100418.25;5009924;28;20041;-68
2022/07/25 01:59:39;;;;;;;15.90;12.20;;;;;;;21.00;nan;100420.09;5010180;28;20419;-69
2022/07/25 02:02:06;;;;;;;22.05;12.18;;;;;;;21.03;nan;100493.69;5008176;28;20045;-69
2022/07/25 02:04:33;;;;;;;19.95;11.80;;;;;;;21.02;nan;100442.03;5010153;28;20033;-68
2022/07/25 02:06:58;;;;;;;19.55;11.52;;;;;;;20.84;nan;100416.09;5008255;28;20030;-69
2022/07/25 02:09:24;;;;;;;26.77;11.32;;;;;;;20.84;nan;100437.50;5010267;28;20045;-69
2022/07/25 02:11:49;;;;;;;23.00;11.32;;;;;;;20.88;nan;100400.22;5009542;28;20034;-69
2022/07/25 02:14:14;;;;;;;16.50;11.15;;;;;;;20.89;nan;100440.09;5008306;28;20038;-68
2022/07/25 02:16:40;;;;;;;15.93;10.82;;;;;;;20.92;nan;100428.78;5009922;28;20390;-69
2022/07/25 02:19:05;;;;;;;17.15;12.00;;;;;;;20.96;nan;100448.53;4993674;28;20044;-70
2022/07/25 02:21:31;;;;;;;14.57;11.25;;;;;;;20.90;nan;100481.84;5007532;28;20077;-68
2022/07/25 02:23:56;;;;;;;17.70;11.77;;;;;;;20.89;nan;100432.06;5005127;28;20045;-69
2022/07/25 02:26:22;;;;;;;19.05;11.65;;;;;;;20.88;nan;100446.53;5010309;28;20535;-69
2022/07/25 02:28:49;;;;;;;16.05;11.15;;;;;;;20.88;nan;100441.19;5009832;28;20063;-68
2022/07/25 02:31:14;;;;;;;15.15;10.40;;;;;;;20.80;nan;100477.41;5009044;28;20092;-69
2022/07/25 02:33:40;;;;;;;16.35;11.50;;;;;;;20.74;nan;100445.69;5010221;28;20475;-69
2022/07/25 02:36:06;;;;;;;18.80;11.55;;;;;;;;;;5010060;28;20542;-68
2022/07/25 02:38:31;;;;;;;14.02;11.23;;;;;;;20.67;nan;100440.72;5016860;28;20042;-69
2022/07/25 02:40:56;;;;;;;16.60;11.15;;;;;;;20.62;nan;100445.34;5015669;28;20467;-68
2022/07/25 02:43:22;;;;;;;15.73;10.95;;;;;;;20.58;nan;100442.44;5014623;28;20373;-68
2022/07/25 02:45:47;;;;;;;13.32;11.23;;;;;;;20.58;nan;100456.63;5016945;28;20518;-69
2022/07/25 02:48:13;;;;;;;16.83;11.48;;;;;;;20.51;nan;100425.94;5015286;28;20045;-68
2022/07/25 02:50:38;;;;;;;13.38;11.15;;;;;;;20.45;nan;100386.97;5014058;28;20045;-69
2022/07/25 02:53:04;;;;;;;18.02;11.55;;;;;;;20.31;nan;100445.75;5013180;28;20038;-68
2022/07/25 02:55:30;;;;;;;18.27;11.15;;;;;;;20.10;nan;100443.34;5015509;28;20033;-68
2022/07/25 02:57:56;;;;;;;16.88;11.55;;;;;;;20.11;nan;100439.59;5016394;28;20136;-69
2022/07/25 03:00:22;;;;;;;16.25;11.70;;;;;;;;;;5015030;28;20543;-68
2022/07/25 03:02:47;;;;;;;16.13;11.27;;;;;;;20.07;nan;100443.13;5014516;28;20034;-69
2022/07/25 03:05:14;;;;;;;18.33;12.27;;;;;;;20.02;nan;100425.28;5014363;28;20061;-68
2022/07/25 03:07:41;;;;;;;22.65;12.50;;;;;;;20.00;nan;100450.72;5015792;28;20033;-68
2022/07/25 03:10:08;;;;;;;18.10;12.27;;;;;;;19.96;nan;100435.22;5016246;28;20069;-69
2022/07/25 03:12:33;;;;;;;16.98;11.63;;;;;;;19.92;nan;100409.34;5013561;28;20399;-69
2022/07/25 03:15:00;;;;;;;15.80;12.05;;;;;;;19.96;nan;100437.13;5015814;28;20044;-69
2022/07/25 03:17:27;;;;;;;21.83;12.25;;;;;;;19.99;nan;100428.50;5030209;28;20042;-68
2022/07/25 03:19:54;;;;;;;15.68;12.43;;;;;;;20.00;nan;100454.19;5012466;28;20125;-68
2022/07/25 03:22:20;;;;;;;16.73;12.82;;;;;;;19.98;nan;100456.34;5011538;28;20036;-68
2022/07/25 03:24:45;;;;;;;21.55;12.35;;;;;;;;;;5010980;28;20046;-68
2022/07/25 03:27:11;;;;;;;16.67;12.27;;;;;;;19.91;nan;100435.28;5016304;28;20126;-69
2022/07/25 03:29:36;;;;;;;18.38;12.45;;;;;;;19.82;nan;100430.88;5016340;28;20080;-69
2022/07/25 03:32:02;;;;;;;17.05;12.73;;;;;;;;;;5015763;28;20084;-70
2022/07/25 03:34:27;;;;;;;18.65;11.95;;;;;;;19.87;nan;100502.97;5015603;28;20570;-69
2022/07/25 03:36:52;;;;;;;18.85;12.45;;;;;;;19.93;nan;100456.41;5015687;28;20034;-68
2022/07/25 03:39:19;;;;;;;19.55;12.60;;;;;;;19.89;nan;100482.88;5013964;28;20076;-69
2022/07/25 03:41:45;;;;;;;15.20;12.70;;;;;;;19.85;nan;100457.00;5014224;28;20550;-69
2022/07/25 03:44:11;;;;;;;17.92;12.63;;;;;;;19.82;nan;100505.69;5011832;28;20037;-69
2022/07/25 03:46:36;;;;;;;20.17;12.63;;;;;;;19.90;nan;100463.13;5013714;28;20038;-69
2022/07/25 03:49:02;;;;;;;18.88;12.50;;;;;;;19.94;nan;100466.00;5013217;28;20040;-69
2022/07/25 03:51:27;;;;;;;19.10;12.32;;;;;;;20.04;nan;100486.47;5011584;28;20093;-69
2022/07/25 03:54:02;;;;;;;27.65;13.43;;;;;;;20.02;nan;100461.91;5012067;28;20034;-68
2022/07/25 03:56:40;;;;;;;26.65;12.68;;;;;;;20.09;nan;100457.03;5008597;28;20488;-68
2022/07/25 03:59:06;;;;;;;19.05;12.35;;;;;;;;;;5005705;28;20037;-69
2022/07/25 04:01:32;;;;;;;19.83;12.88;;;;;;;20.16;nan;100460.09;5002511;28;20049;-69
2022/07/25 04:03:58;;;;;;;20.45;13.30;;;;;;;20.18;nan;100474.81;5008100;28;20033;-69
2022/07/25 04:06:24;;;;;;;17.55;13.40;;;;;;;20.20;nan;100538.66;5003045;28;20046;-69
2022/07/25 04:08:50;;;;;;;24.63;12.73;;;;;;;20.24;nan;100491.56;5006553;28;20041;-70
2022/07/25 04:11:16;;;;;;;22.63;12.73;;;;;;;20.26;nan;100484.06;5007297;28;20116;-69
2022/07/25 04:13:41;;;;;;;19.02;12.93;;;;;;;20.26;nan;100481.38;5008870;28;20064;-68
2022/07/25 04:16:08;;;;;;;24.38;12.52;;;;;;;20.27;nan;100460.78;5009954;28;20767;-69
2022/07/25 04:18:33;;;;;;;20.00;12.95;;;;;;;20.33;nan;100431.00;5006757;28;20060;-69
2022/07/25 04:20:59;;;;;;;17.90;12.77;;;;;;;20.41;nan;100480.38;5003062;28;20073;-69
2022/07/25 04:23:24;;;;;;;22.25;13.85;;;;;;;20.44;nan;100471.78;5003187;28;20121;-69
2022/07/25 04:25:50;;;;;;;20.50;12.65;;;;;;;20.48;nan;100485.38;5003844;28;20034;-69
2022/07/25 04:28:15;;;;;;;17.42;12.63;;;;;;;20.45;nan;100481.41;5004687;28;20092;-69
2022/07/25 04:30:44;;;;;;;18.92;12.13;;;;;;;20.42;nan;100476.59;5006678;28;20045;-70
2022/07/25 04:33:10;;;;;;;19.58;12.32;;;;;;;20.45;nan;100470.69;5006585;28;20038;-68
2022/07/25 04:35:35;;;;;;;18.13;12.80;;;;;;;20.50;nan;100473.31;5006346;28;20104;-69
2022/07/25 04:38:01;;;;;;;20.13;12.73;;;;;;;20.49;nan;100479.72;5004305;28;20124;-70
2022/07/25 04:40:27;;;;;;;21.15;13.38;;;;;;;20.55;nan;100477.78;5009613;28;20161;-69
2022/07/25 04:42:52;;;;;;;22.52;13.05;;;;;;;20.61;nan;100532.81;5008776;28;20056;-71
2022/07/25 04:45:18;;;;;;;27.63;13.05;;;;;;;20.71;nan;100481.03;5010017;28;20030;-71
2022/07/25 04:47:43;;;;;;;23.33;13.23;;;;;;;20.76;nan;100476.44;5011124;28;20109;-70
2022/07/25 04:50:09;;;;;;;20.10;12.48;;;;;;;20.81;nan;100460.28;5010577;28;20038;-70
2022/07/25 04:52:34;;;;;;;22.08;12.35;;;;;;;20.94;nan;100474.78;5004294;28;20130;-70
2022/07/25 04:55:00;;;;;;;16.90;11.77;;;;;;;20.98;nan;100475.81;5010602;28;20084;-69
2022/07/25 04:57:25;;;;;;;18.10;12.50;;;;;;;21.00;nan;100516.47;5008053;28;20065;-69
2022/07/25 04:59:50;;;;;;;19.92;12.32;;;;;;;20.96;nan;100469.94;5011269;28;20065;-70
2022/07/25 05:02:16;;;;;;;17.48;12.38;;;;;;;21.14;nan;100481.72;5008874;28;20400;-69
2022/07/25 05:04:41;;;;;;;24.92;12.73;;;;;;;21.24;nan;100489.56;5009869;28;20092;-70
2022/07/25 05:07:07;;;;;;;18.40;11.98;;;;;;;21.36;nan;100488.31;5007474;28;20080;-69
2022/07/25 05:09:32;;;;;;;15.52;11.80;;;;;;;21.48;nan;100471.78;5010463;28;20112;-70
2022/07/25 05:11:58;;;;;;;16.15;11.75;;;;;;;21.53;nan;100434.19;5006456;28;20038;-70
2022/07/25 05:14:24;;;;;;;24.95;11.48;;;;;;;21.65;nan;100467.44;5005508;28;20038;-69
2022/07/25 05:16:49;;;;;;;19.60;11.93;;;;;;;21.69;nan;100483.69;5008726;28;20038;-70
2022/07/25 05:19:15;;;;;;;18.45;11.80;;;;;;;21.82;nan;100469.53;5012030;28;20088;-70
2022/07/25 05:21:40;;;;;;;16.63;11.13;;;;;;;;;;5006057;28;20035;-69
2022/07/25 05:24:05;;;;;;;23.00;11.33;;;;;;;22.01;nan;100541.03;5003200;28;20049;-70
2022/07/25 05:26:31;;;;;;;17.52;11.40;;;;;;;22.05;nan;100470.41;5008005;28;20480;-69
2022/07/25 05:28:57;;;;;;;19.00;11.65;;;;;;;22.05;nan;100552.72;5011858;28;20069;-68
2022/07/25 05:31:22;;;;;;;15.20;11.80;;;;;;;22.18;nan;100468.00;5005154;28;20116;-68
2022/07/25 05:33:48;;;;;;;23.42;12.18;;;;;;;22.24;nan;100475.69;5008169;28;20506;-68
2022/07/25 05:36:13;;;;;;;21.55;12.50;;;;;;;22.33;nan;100489.16;5001788;28;20038;-70
2022/07/25 05:38:39;;;;;;;15.07;11.52;;;;;;;22.37;nan;100502.78;5006767;28;20496;-69
2022/07/25 05:41:04;;;;;;;18.27;11.85;;;;;;;22.45;nan;100485.94;5008133;28;20049;-69
2022/07/25 05:43:30;;;;;;;14.18;11.27;;;;;;;22.45;nan;100523.50;5006163;28;20022;-70
2022/07/25 05:46:00;;;;;;;20.67;12.38;;;;;;;22.57;nan;100499.63;5006953;28;20369;-69
2022/07/25 05:48:26;;;;;;;16.83;12.15;;;;;;;22.66;nan;100476.34;5007073;28;20465;-70
2022/07/25 05:50:51;;;;;;;18.85;11.98;;;;;;;22.73;nan;100463.28;4999752;28;20136;-69
2022/07/25 05:53:16;;;;;;;15.65;11.50;;;;;;;22.84;nan;100454.97;5012110;28;20421;-70
2022/07/25 05:55:42;;;;;;;19.67;12.13;;;;;;;22.91;nan;100452.66;5005180;28;20677;-69
2022/07/25 05:58:08;;;;;;;20.75;12.52;;;;;;;23.04;nan;100485.97;5013596;28;20037;-69
2022/07/25 06:00:33;;;;;;;19.67;11.90;;;;;;;23.17;nan;100435.94;5007334;28;20045;-69
2022/07/25 06:02:59;;;;;;;16.85;11.63;;;;;;;23.31;nan;100444.69;5008077;28;20034;-69
2022/07/25 06:05:25;;;;;;;16.10;11.40;;;;;;;23.46;nan;100475.75;5008680;28;20034;-70
2022/07/25 06:07:50;;;;;;;20.75;12.52;;;;;;;;;;5006278;28;20128;-69
2022/07/25 06:10:15;;;;;;;17.53;11.30;;;;;;;23.61;nan;100471.84;5005821;28;20056;-69
2022/07/25 06:12:41;;;;;;;18.85;11.73;;;;;;;23.75;nan;100461.81;5003964;28;20287;-68
2022/07/25 06:15:07;;;;;;;14.63;10.35;;;;;;;23.85;nan;100474.16;5009467;28;20034;-68
2022/07/25 06:17:32;;;;;;;13.25;10.73;;;;;;;23.91;nan;100414.53;5009777;28;20030;-70
2022/07/25 06:19:58;;;;;;;13.65;10.50;;;;;;;24.02;nan;100476.13;5010490;28;20030;-67
2022/07/25 06:22:23;;;;;;;15.23;10.73;;;;;;;24.09;nan;100449.56;5009247;28;20117;-68
2022/07/25 06:24:48;;;;;;;16.08;10.25;;;;;;;24.20;nan;100466.97;5009542;28;20042;-68
2022/07/25 06:27:14;;;;;;;17.27;11.07;;;;;;;24.27;nan;100444.97;5008449;28;20503;-69
2022/07/25 06:29:39;;;;;;;14.32;10.73;;;;;;;24.34;nan;100478.38;5009321;28;20382;-69
2022/07/25 06:32:05;;;;;;;15.48;10.52;;;;;;;24.44;nan;100471.91;5006115;28;20403;-69
2022/07/25 06:34:30;;;;;;;20.52;10.25;;;;;;;24.53;nan;100458.47;5007310;28;20026;-69
2022/07/25 06:36:57;;;;;;;14.13;10.65;;;;;;;24.67;nan;100475.25;5010513;28;20037;-69
2022/07/25 06:39:22;;;;;;;15.60;11.23;;;;;;;24.78;nan;100454.16;5002440;28;20049;-69
2022/07/25 06:41:48;;;;;;;14.80;9.80;;;;;;;24.82;nan;100457.81;5007255;28;20459;-69
2022/07/25 06:44:14;;;;;;;14.27;10.70;;;;;;;24.90;nan;100459.72;5010018;28;20053;-70
2022/07/25 06:46:40;;;;;;;14.13;9.85;;;;;;;25.00;nan;100466.66;5008963;28;20037;-68
2022/07/25 06:49:05;;;;;;;11.55;9.82;;;;;;;25.00;nan;100499.78;4999177;28;20065;-68
2022/07/25 06:51:30;;;;;;;13.15;9.90;;;;;;;25.16;nan;100465.03;5008951;28;20034;-70
2022/07/25 06:53:56;;;;;;;13.63;9.70;;;;;;;25.22;nan;100466.47;5009186;28;20041;-68
2022/07/25 06:56:22;;;;;;;15.60;10.00;;;;;;;25.34;nan;100427.28;5004712;28;20456;-68
2022/07/25 06:58:47;;;;;;;18.17;9.68;;;;;;;25.44;nan;100451.16;5008104;28;20049;-68
2022/07/25 07:01:12;;;;;;;13.73;9.85;;;;;;;25.49;nan;100496.81;5004339;28;20030;-69
2022/07/25 07:03:39;;;;;;;13.77;9.50;;;;;;;25.56;nan;100464.75;5009346;28;20440;-69
2022/07/25 07:06:06;;;;;;;12.25;9.52;;;;;;;25.65;nan;100445.84;5006335;28;20443;-69
2022/07/25 07:08:31;;;;;;;13.93;9.68;;;;;;;25.71;nan;100459.94;5008854;28;20026;-69
2022/07/25 07:10:57;;;;;;;17.05;9.43;;;;;;;25.77;nan;100461.34;5006336;28;20374;-69
2022/07/25 07:13:22;;;;;;;13.48;9.70;;;;;;;25.87;nan;100426.69;5010329;28;20362;-69
2022/07/25 07:15:49;;;;;;;11.55;9.70;;;;;;;25.97;nan;100436.31;5005885;28;20121;-69
2022/07/25 07:18:18;;;;;;;12.90;9.38;;;;;;;26.09;nan;100455.28;5006478;28;20049;-68
2022/07/25 07:20:43;;;;;;;11.38;9.10;;;;;;;26.18;nan;100395.06;5003402;28;20391;-68
2022/07/25 07:23:09;;;;;;;15.02;9.20;;;;;;;26.22;nan;100472.34;5008463;28;20030;-69
2022/07/25 07:25:35;;;;;;;14.30;9.45;;;;;;;26.29;nan;100442.09;5011460;28;20080;-68
2022/07/25 07:28:01;;;;;;;15.70;9.57;;;;;;;26.37;nan;100452.06;5012115;28;20034;-69
2022/07/25 07:30:26;;;;;;;13.32;9.10;;;;;;;26.38;nan;100415.06;5012347;28;20048;-69
2022/07/25 07:32:52;;;;;;;16.35;9.02;;;;;;;26.48;nan;100447.84;5013911;28;20068;-68
2022/07/25 07:35:18;;;;;;;12.27;9.10;;;;;;;26.57;nan;100487.50;5014555;28;20041;-69
2022/07/25 07:37:44;;;;;;;15.05;8.20;;;;;;;26.70;nan;100464.84;5010955;28;20583;-68
2022/07/25 07:40:12;;;;;;;13.00;8.55;;;;;;;26.82;nan;100480.31;5011309;28;20040;-68
2022/07/25 07:42:41;;;;;;;13.93;8.73;;;;;;;26.90;nan;100469.41;5014249;28;20048;-68
2022/07/25 07:45:25;;;;;;;11.25;8.13;;;;;;;26.95;nan;100452.97;5011840;28;20026;-68
2022/07/25 07:47:52;;;;;;;13.07;8.20;;;;;;;26.98;nan;100470.44;5009727;28;20038;-70
2022/07/25 07:50:21;;;;;;;9.60;7.50;;;;;;;27.07;nan;100479.25;5003784;28;20053;-68
2022/07/25 07:52:47;;;;;;;9.88;7.38;;;;;;;27.17;nan;100483.44;5011056;28;20038;-68
2022/07/25 07:58:00;;;;;;;11.93;8.07;;;;;;;27.31;nan;100442.59;5011398;28;20069;-69
2022/07/25 08:00:29;;;;;;;10.60;7.50;;;;;;;27.37;nan;100454.78;5012924;28;20117;-69
2022/07/25 08:02:56;;;;;;;9.63;7.38;;;;;;;27.50;nan;100444.75;5009536;28;20057;-68
2022/07/25 08:05:30;;;;;;;12.05;7.53;;;;;;;27.60;nan;100465.94;5010791;28;20036;-69
2022/07/25 08:07:56;;;;;;;8.32;7.22;;;;;;;27.69;nan;100479.34;5011897;28;20034;-70
2022/07/25 08:10:30;;;;;;;8.80;7.45;;;;;;;27.78;nan;100464.56;5010212;28;20033;-69
2022/07/25 08:12:57;;;;;;;11.55;7.38;;;;;;;27.77;nan;100437.84;5013643;28;20045;-69
2022/07/25 08:15:23;;;;;;;9.27;6.80;;;;;;;27.93;nan;100487.47;5011679;28;20034;-69
2022/07/25 08:17:49;;;;;;;10.63;7.78;;;;;;;27.98;nan;100470.22;5013448;28;20030;-66
2022/07/25 08:20:15;;;;;;;7.60;6.80;;;;;;;28.03;nan;100474.63;5006975;28;20432;-68
2022/07/25 08:22:43;;;;;;;11.40;7.15;;;;;;;28.18;nan;100477.41;5005588;28;20096;-69
2022/07/25 08:25:12;;;;;;;11.90;6.97;;;;;;;28.29;nan;100466.88;5007887;28;20045;-71
2022/07/25 08:27:38;;;;;;;8.60;6.90;;;;;;;28.36;nan;100444.63;5006095;28;20045;-71
2022/07/25 08:30:06;;;;;;;9.32;7.10;;;;;;;28.54;nan;100443.25;5006540;28;20507;-70
2022/07/25 08:32:32;;;;;;;9.27;7.45;;;;;;;28.57;nan;100437.13;5010466;28;20112;-70
2022/07/25 08:34:58;;;;;;;11.07;7.90;;;;;;;28.62;nan;100469.38;5009981;28;20500;-71
2022/07/25 08:37:24;;;;;;;9.02;7.43;;;;;;;28.63;nan;100437.66;5009269;28;20037;-71
2022/07/25 08:39:51;;;;;;;12.18;7.43;;;;;;;28.73;nan;100496.78;5006820;28;20041;-72
2022/07/25 08:42:18;;;;;;;8.48;6.90;;;;;;;28.80;nan;100450.91;5012844;28;20034;-72
2022/07/25 08:44:53;;;;;;;19.42;7.85;;;;;;;28.86;nan;100431.69;5007015;28;20073;-71
2022/07/25 08:47:20;;;;;;;11.65;7.60;;;;;;;28.96;nan;100436.59;5010295;28;20038;-67
2022/07/25 08:49:45;;;;;;;11.05;7.13;;;;;;;29.02;nan;100449.53;5011187;28;20048;-72
2022/07/25 08:52:11;;;;;;;7.75;6.95;;;;;;;29.03;nan;100463.88;5008178;28;20113;-71
2022/07/25 08:54:37;;;;;;;7.95;7.10;;;;;;;29.16;nan;100454.53;5006805;28;20033;-71
2022/07/25 08:57:03;;;;;;;9.68;6.80;;;;;;;29.21;nan;100454.31;5009710;28;20038;-71
2022/07/25 08:59:30;;;;;;;9.70;7.03;;;;;;;29.27;nan;100450.19;5007105;28;20076;-71
2022/07/25 09:01:57;;;;;;;10.45;7.40;;;;;;;29.35;nan;100464.69;5009068;28;20107;-71
2022/07/25 09:04:24;;;;;;;8.77;7.15;;;;;;;29.38;nan;100466.72;5008819;28;20033;-71
2022/07/25 09:06:50;;;;;;;11.23;7.35;;;;;;;29.45;nan;100434.34;5007097;28;20068;-67
2022/07/25 09:09:16;;;;;;;11.27;6.70;;;;;;;29.52;nan;100430.19;5005335;28;20232;-66
2022/07/25 09:11:41;;;;;;;7.97;6.80;;;;;;;29.51;nan;100413.16;5004600;28;20087;-67
2022/07/25 09:14:10;;;;;;;8.15;6.55;;;;;;;29.66;nan;100442.19;5006465;28;20124;-66
2022/07/25 09:16:41;;;;;;;8.13;6.63;;;;;;;29.68;nan;100436.41;5009109;28;20061;-67
2022/07/25 09:19:13;;;;;;;12.13;6.97;;;;;;;29.75;nan;100431.16;5003632;28;20038;-65
2022/07/25 09:21:39;;;;;;;8.30;6.18;;;;;;;29.80;nan;100440.94;5007867;28;20034;-67
2022/07/25 09:24:09;;;;;;;6.63;5.93;;;;;;;29.88;nan;100439.94;5005173;28;20045;-66
2022/07/25 09:26:51;;;;;;;8.07;6.05;;;;;;;29.92;nan;100443.53;5007056;28;20052;-67
2022/07/25 09:29:19;;;;;;;6.88;6.15;;;;;;;29.97;nan;100437.81;5009238;28;20053;-71
2022/07/25 09:31:45;;;;;;;8.13;6.40;;;;;;;30.05;nan;100436.84;5008848;28;20037;-71
2022/07/25 09:34:11;;;;;;;7.68;6.40;;;;;;;30.07;nan;100406.59;5009594;28;20041;-71
2022/07/25 09:36:49;;;;;;;10.25;6.55;;;;;;;30.14;nan;100433.13;5006177;28;20060;-72
2022/07/25 09:39:14;;;;;;;9.85;6.03;;;;;;;30.14;nan;100482.78;5009125;28;20492;-72
2022/07/25 09:41:41;;;;;;;8.85;5.82;;;;;;;30.21;nan;100409.59;5010766;28;20026;-70
2022/07/25 09:44:16;;;;;;;7.03;6.32;;;;;;;30.16;nan;100423.47;5008187;28;20045;-71
2022/07/25 09:46:42;;;;;;;12.15;6.40;;;;;;;30.15;nan;100435.50;5004254;28;20026;-71
2022/07/25 09:49:08;;;;;;;9.15;6.03;;;;;;;30.12;nan;100438.91;5007734;28;20033;-71
2022/07/25 09:51:34;;;;;;;7.93;5.90;;;;;;;30.10;nan;100433.06;5011644;28;20088;-71
2022/07/25 09:54:02;;;;;;;6.78;5.95;;;;;;;30.04;nan;100382.88;5008914;28;20650;-71
2022/07/25 09:56:27;;;;;;;8.63;6.20;;;;;;;29.98;nan;100417.69;5009613;28;20049;-71
2022/07/25 09:58:53;;;;;;;9.60;6.22;;;;;;;29.99;nan;100413.81;5015089;28;20115;-71
2022/07/25 10:01:24;;;;;;;6.35;5.72;;;;;;;29.97;nan;100409.91;5010720;28;20030;-71
2022/07/25 10:03:52;;;;;;;9.45;5.90;;;;;;;30.00;nan;100399.13;5010244;28;20107;-71
2022/07/25 10:06:29;;;;;;;6.15;5.55;;;;;;;30.00;nan;100420.03;5007566;28;20034;-71
2022/07/25 10:08:56;;;;;;;9.05;5.72;;;;;;;30.07;nan;100420.19;5009680;28;20045;-72
2022/07/25 10:11:24;;;;;;;7.75;5.95;;;;;;;30.10;nan;100409.41;5011042;28;20041;-73
2022/07/25 10:13:51;;;;;;;8.20;6.20;;;;;;;30.03;nan;100432.91;5006953;28;20096;-72
2022/07/25 10:16:22;;;;;;;7.57;5.63;;;;;;;30.17;nan;100407.97;5008486;28;20037;-71
2022/07/25 10:18:50;;;;;;;7.38;5.78;;;;;;;30.27;nan;100413.66;5010611;28;20037;-72
2022/07/25 10:21:15;;;;;;;6.47;5.70;;;;;;;30.38;nan;100391.34;5007540;28;20483;-72
2022/07/25 10:23:41;;;;;;;6.75;5.88;;;;;;;30.40;nan;100405.34;5007060;28;20026;-69
2022/07/25 10:26:09;;;;;;;7.63;6.10;;;;;;;30.51;nan;100393.53;5006757;28;20324;-72
2022/07/25 10:28:38;;;;;;;7.35;6.18;;;;;;;30.55;nan;100400.97;5007846;28;20042;-68
2022/07/25 10:31:14;;;;;;;8.52;5.95;;;;;;;30.56;nan;100369.94;5010729;28;20030;-68
2022/07/25 10:33:40;;;;;;;11.30;6.22;;;;;;;30.44;nan;100362.72;5011233;28;20034;-72
2022/07/25 10:36:10;;;;;;;12.32;6.10;;;;;;;30.43;nan;100399.19;5025972;28;20401;-69
2022/07/25 10:38:39;;;;;;;9.80;6.00;;;;;;;30.45;nan;100407.78;5009952;28;20500;-69
2022/07/25 10:41:07;;;;;;;8.68;5.90;;;;;;;30.47;nan;100400.03;5009700;28;20149;-72
2022/07/25 10:43:37;;;;;;;11.67;6.40;;;;;;;30.36;nan;100389.00;5012640;28;20029;-70
2022/07/25 10:46:13;;;;;;;10.27;6.35;;;;;;;30.33;nan;100395.13;5008133;28;20260;-71
2022/07/25 10:48:39;;;;;;;9.80;5.93;;;;;;;30.38;nan;100404.91;5008854;28;20084;-68
2022/07/25 10:51:08;;;;;;;7.75;5.80;;;;;;;30.47;nan;100395.41;5007193;28;20030;-67
2022/07/25 10:53:42;;;;;;;6.40;5.80;;;;;;;30.59;nan;100426.28;5007484;28;20096;-70
2022/07/25 10:56:14;;;;;;;6.75;5.40;;;;;;;30.71;nan;100367.09;5006446;28;20034;-74
2022/07/25 10:58:45;;;;;;;8.07;5.72;;;;;;;30.83;nan;100349.03;5012531;28;20033;-75
2022/07/25 11:01:12;;;;;;;8.13;5.97;;;;;;;30.98;nan;100344.63;5008649;28;20042;-68
2022/07/25 11:03:44;;;;;;;6.60;5.85;;;;;;;31.18;nan;100307.25;5014019;28;20038;-75
2022/07/25 11:06:14;;;;;;;6.80;6.20;;;;;;;31.36;nan;100387.16;5011661;28;20033;-75
2022/07/25 11:08:41;;;;;;;7.93;6.10;;;;;;;31.45;nan;100297.91;5009536;28;20045;-75
2022/07/25 11:11:08;;;;;;;8.70;6.60;;;;;;;31.55;nan;100350.91;5011153;28;20034;-72
2022/07/25 11:13:39;;;;;;;7.57;6.13;;;;;;;31.56;nan;100339.69;5011218;28;20038;-66
2022/07/25 11:16:05;;;;;;;10.15;6.20;;;;;;;31.56;nan;100347.84;5007506;28;20093;-67
2022/07/25 11:18:32;;;;;;;8.90;6.13;;;;;;;31.56;nan;100347.06;5010840;28;20046;-67
2022/07/25 11:21:03;;;;;;;7.90;5.75;;;;;;;31.57;nan;100324.91;5011142;28;20030;-66
2022/07/25 11:23:28;;;;;;;8.20;6.47;;;;;;;31.54;nan;100330.31;5009814;28;20447;-74
2022/07/25 11:26:11;;;;;;;7.63;6.22;;;;;;;31.59;nan;100297.31;5013037;28;20030;-75
2022/07/25 11:28:41;;;;;;;6.53;5.85;;;;;;;31.68;nan;100343.31;5012072;28;20117;-73
2022/07/25 11:31:07;;;;;;;10.43;5.95;;;;;;;31.60;nan;100295.38;5004517;28;20041;-66
2022/07/25 11:33:34;;;;;;;8.35;5.88;;;;;;;31.55;nan;100320.97;5001169;28;20088;-74
2022/07/25 11:36:00;;;;;;;7.78;6.13;;;;;;;31.56;nan;100303.50;5007998;28;20365;-74